createdAt,value
2018-05-01T00:00:08.882Z,94.65
2018-05-01T00:01:17.714Z,94.74
2018-05-01T00:02:26.545Z,94.27
2018-05-01T00:03:35.576Z,94.65
2018-05-01T00:04:44.406Z,94.56
2018-05-01T00:05:53.785Z,95.03
2018-05-01T00:07:02.887Z,95.22
2018-05-01T00:08:11.721Z,95.03
2018-05-01T00:09:20.655Z,95.12
2018-05-01T00:10:29.485Z,94.93
2018-05-01T00:11:38.317Z,95.03
2018-05-01T00:12:47.151Z,95.03
2018-05-01T00:13:55.984Z,95.41
2018-05-01T00:15:04.966Z,96.08
2018-05-01T00:16:13.801Z,95.51
2018-05-01T00:17:22.633Z,95.22
2018-05-01T00:18:31.743Z,95.51
2018-05-01T00:19:40.575Z,96.26
2018-05-01T00:20:49.605Z,95.89
2018-05-01T00:21:58.436Z,95.89
2018-05-01T00:23:07.268Z,96.46
2018-05-01T00:24:16.099Z,96.08
2018-05-01T00:25:24.930Z,96.36
2018-05-01T00:26:34.141Z,96.17
2018-05-01T00:27:42.969Z,95.41
2018-05-01T00:28:51.796Z,97.13
2018-05-01T00:30:00.625Z,96.55
2018-05-01T00:31:09.459Z,96.65
2018-05-01T00:32:18.563Z,96.08
2018-05-01T00:33:27.395Z,96.26
2018-05-01T00:34:36.500Z,97.13
2018-05-01T00:35:45.332Z,96.08
2018-05-01T00:36:54.438Z,96.36
2018-05-01T00:38:03.269Z,96.36
2018-05-01T00:39:12.102Z,96.65
2018-05-01T00:40:20.935Z,96.17
2018-05-01T00:41:29.764Z,96.55
2018-05-01T00:42:38.595Z,97.13
2018-05-01T00:43:47.427Z,97.31
2018-05-01T00:44:56.258Z,97.41
2018-05-01T00:46:05.093Z,98.17
2018-05-01T00:47:13.926Z,97.41
2018-05-01T00:48:22.758Z,97.41
2018-05-01T00:49:31.742Z,97.31
2018-05-01T00:50:40.570Z,98.17
2018-05-01T00:51:49.477Z,97.69
2018-05-01T00:52:58.231Z,97.31
2018-05-01T00:54:07.063Z,97.41
2018-05-01T00:55:16.323Z,97.5
2018-05-01T00:56:25.156Z,98.17
2018-05-01T00:57:34.263Z,97.22
2018-05-01T00:58:43.096Z,97.22
2018-05-01T00:59:51.929Z,97.03
2018-05-01T01:01:00.766Z,96.94
2018-05-01T01:02:09.874Z,97.22
2018-05-01T01:03:19.260Z,97.03
2018-05-01T01:04:28.091Z,97.41
2018-05-01T01:05:36.931Z,97.13
2018-05-01T01:06:46.035Z,97.41
2018-05-01T01:07:54.868Z,96.94
2018-05-01T01:09:03.700Z,96.94
2018-05-01T01:10:12.533Z,97.31
2018-05-01T01:11:21.365Z,96.36
2018-05-01T01:12:30.198Z,97.13
2018-05-01T01:13:39.314Z,96.84
2018-05-01T01:14:48.143Z,97.31
2018-05-01T01:15:56.975Z,97.79
2018-05-01T01:17:06.079Z,97.22
2018-05-01T01:18:15.061Z,97.22
2018-05-01T01:19:23.896Z,97.31
2018-05-01T01:20:32.729Z,97.5
2018-05-01T01:21:41.836Z,97.41
2018-05-01T01:22:50.671Z,97.22
2018-05-01T01:23:59.607Z,97.5
2018-05-01T01:25:08.438Z,97.13
2018-05-01T01:26:17.270Z,97.6
2018-05-01T01:27:26.104Z,97.31
2018-05-01T01:28:34.938Z,97.41
2018-05-01T01:29:43.771Z,98.08
2018-05-01T01:30:52.880Z,97.13
2018-05-01T01:32:01.712Z,96.94
2018-05-01T01:33:10.544Z,97.31
2018-05-01T01:34:19.378Z,98.36
2018-05-01T01:35:28.361Z,97.6
2018-05-01T01:36:37.196Z,97.31
2018-05-01T01:37:46.029Z,97.6
2018-05-01T01:38:55.137Z,97.6
2018-05-01T01:40:04.245Z,97.22
2018-05-01T01:41:13.228Z,97.5
2018-05-01T01:42:22.061Z,97.22
2018-05-01T01:43:30.893Z,96.55
2018-05-01T01:44:39.733Z,97.41
2018-05-01T01:45:48.843Z,97.22
2018-05-01T01:46:57.922Z,97.41
2018-05-01T01:48:06.753Z,97.22
2018-05-01T01:49:15.861Z,97.22
2018-05-01T01:50:24.694Z,97.31
2018-05-01T01:51:33.525Z,98.17
2018-05-01T01:52:42.357Z,98.08
2018-05-01T01:53:51.193Z,98.36
2018-05-01T01:55:00.034Z,98.36
2018-05-01T01:56:09.149Z,98.31
2018-05-01T01:57:17.981Z,97.98
2018-05-01T01:58:26.868Z,97.83
2018-05-01T01:59:35.705Z,98.31
2018-05-01T02:00:44.810Z,98.41
2018-05-01T02:01:53.917Z,98.22
2018-05-01T02:03:03.026Z,97.93
2018-05-01T02:04:12.288Z,98.03
2018-05-01T02:05:21.116Z,97.83
2018-05-01T02:06:29.947Z,98.31
2018-05-01T02:07:39.055Z,98.41
2018-05-01T02:08:47.886Z,98.31
2018-05-01T02:09:57.018Z,98.41
2018-05-01T02:11:05.848Z,98.88
2018-05-01T02:12:14.679Z,99.16
2018-05-01T02:13:23.516Z,98.79
2018-05-01T02:14:32.342Z,98.5
2018-05-01T02:15:41.326Z,98.31
2018-05-01T02:16:50.157Z,97.93
2018-05-01T02:17:58.988Z,98.31
2018-05-01T02:19:07.824Z,98.41
2018-05-01T02:20:16.650Z,99.16
2018-05-01T02:21:25.729Z,98.97
2018-05-01T02:22:34.561Z,98.03
2018-05-01T02:23:43.396Z,98.03
2018-05-01T02:24:52.776Z,98.31
2018-05-01T02:26:01.887Z,98.69
2018-05-01T02:27:10.769Z,98.31
2018-05-01T02:28:20.157Z,98.88
2018-05-01T02:29:29.262Z,97.93
2018-05-01T02:30:38.097Z,98.69
2018-05-01T02:31:47.213Z,98.45
2018-05-01T02:32:56.141Z,98.17
2018-05-01T02:34:05.305Z,97.78
2018-05-01T02:35:14.156Z,97.97
2018-05-01T02:36:23.531Z,98.26
2018-05-01T02:37:32.650Z,98.26
2018-05-01T02:38:42.061Z,97.97
2018-05-01T02:39:51.438Z,97.97
2018-05-01T02:41:00.827Z,98.07
2018-05-01T02:42:10.016Z,98.26
2018-05-01T02:43:19.121Z,98.22
2018-05-01T02:44:28.335Z,98.26
2018-05-01T02:45:37.444Z,97.97
2018-05-01T02:46:47.119Z,97.22
2018-05-01T02:47:55.951Z,98.26
2018-05-01T02:49:04.782Z,97.88
2018-05-01T02:50:14.317Z,97.97
2018-05-01T02:51:23.429Z,98.17
2018-05-01T02:52:32.823Z,98.07
2018-05-01T02:53:42.201Z,97.69
2018-05-01T02:54:51.583Z,97.78
2018-05-01T02:56:00.795Z,97.88
2018-05-01T02:57:09.899Z,97.88
2018-05-01T02:58:19.282Z,98.36
2018-05-01T02:59:28.671Z,98.07
2018-05-01T03:00:37.505Z,98.07
2018-05-01T03:01:46.915Z,98.26
2018-05-01T03:02:56.028Z,98.64
2018-05-01T03:04:05.132Z,98.36
2018-05-01T03:05:14.238Z,98.45
2018-05-01T03:06:23.075Z,98.45
2018-05-01T03:07:32.179Z,98.07
2018-05-01T03:08:41.283Z,98.45
2018-05-01T03:09:50.552Z,98.45
2018-05-01T03:10:59.511Z,98.93
2018-05-01T03:12:08.899Z,98.55
2018-05-01T03:13:18.385Z,98.45
2018-05-01T03:14:27.488Z,98.26
2018-05-01T03:15:36.592Z,98.07
2018-05-01T03:16:45.423Z,98.36
2018-05-01T03:17:54.256Z,98.64
2018-05-01T03:19:03.670Z,98.83
2018-05-01T03:20:12.501Z,98.64
2018-05-01T03:21:21.333Z,99.02
2018-05-01T03:22:30.168Z,99.11
2018-05-01T03:23:38.992Z,98.64
2018-05-01T03:24:48.127Z,98.83
2018-05-01T03:25:56.959Z,97.97
2018-05-01T03:27:06.068Z,98.64
2018-05-01T03:28:15.174Z,98.45
2018-05-01T03:29:24.006Z,98.26
2018-05-01T03:30:33.368Z,98.64
2018-05-01T03:31:42.486Z,97.78
2018-05-01T03:32:51.871Z,98.07
2018-05-01T03:34:00.700Z,98.07
2018-05-01T03:35:09.806Z,98.07
2018-05-01T03:36:18.942Z,97.6
2018-05-01T03:37:27.768Z,97.31
2018-05-01T03:38:36.598Z,97.74
2018-05-01T03:39:45.429Z,97.83
2018-05-01T03:40:54.260Z,97.55
2018-05-01T03:42:03.463Z,97.92
2018-05-01T03:43:12.294Z,97.55
2018-05-01T03:44:21.127Z,97.64
2018-05-01T03:45:29.954Z,97.17
2018-05-01T03:46:38.784Z,97.64
2018-05-01T03:47:48.040Z,97.27
2018-05-01T03:48:56.871Z,97.74
2018-05-01T03:50:05.701Z,96.69
2018-05-01T03:51:14.531Z,96.88
2018-05-01T03:52:23.361Z,97.03
2018-05-01T03:53:32.392Z,96.93
2018-05-01T03:54:41.224Z,96.79
2018-05-01T03:55:50.066Z,96.98
2018-05-01T03:56:58.885Z,97.03
2018-05-01T03:58:07.715Z,96.98
2018-05-01T03:59:16.595Z,96.98
2018-05-01T04:00:25.427Z,97.45
2018-05-01T04:01:34.257Z,96.5
2018-05-01T04:02:43.086Z,96.79
2018-05-01T04:03:51.915Z,96.79
2018-05-01T04:05:00.743Z,96.69
2018-05-01T04:06:09.571Z,96.98
2018-05-01T04:07:18.400Z,96.69
2018-05-01T04:08:27.232Z,97.17
2018-05-01T04:09:36.065Z,96.41
2018-05-01T04:10:44.944Z,96.5
2018-05-01T04:11:53.775Z,95.75
2018-05-01T04:13:02.882Z,95.65
2018-05-01T04:14:11.717Z,95.65
2018-05-01T04:15:20.547Z,95.55
2018-05-01T04:16:29.678Z,95.46
2018-05-01T04:17:38.508Z,95.55
2018-05-01T04:18:47.339Z,94.32
2018-05-01T04:19:56.448Z,94.03
2018-05-01T04:21:05.554Z,93.94
2018-05-01T04:22:14.634Z,94.03
2018-05-01T04:23:23.737Z,93.75
2018-05-01T04:24:32.568Z,93.75
2018-05-01T04:25:41.677Z,94.03
2018-05-01T04:26:50.884Z,93.65
2018-05-01T04:27:59.866Z,93.27
2018-05-01T04:29:08.976Z,93.56
2018-05-01T04:30:17.809Z,92.8
2018-05-01T04:31:26.638Z,93.18
2018-05-01T04:32:35.468Z,92.99
2018-05-01T04:33:44.449Z,92.8
2018-05-01T04:34:53.275Z,92.8
2018-05-01T04:36:02.104Z,93.56
2018-05-01T04:37:11.210Z,93.65
2018-05-01T04:38:20.041Z,93.18
2018-05-01T04:39:29.253Z,92.9
2018-05-01T04:40:38.083Z,93.08
2018-05-01T04:41:46.916Z,93.08
2018-05-01T04:42:55.743Z,92.71
2018-05-01T04:44:04.570Z,92.42
2018-05-01T04:45:13.702Z,92.23
2018-05-01T04:46:22.530Z,92.13
2018-05-01T04:47:31.359Z,91.66
2018-05-01T04:48:40.472Z,91.28
2018-05-01T04:49:49.305Z,90.9
2018-05-01T04:50:58.287Z,91.19
2018-05-01T04:52:07.120Z,91.09
2018-05-01T04:53:15.948Z,90.8
2018-05-01T04:54:24.775Z,90.9
2018-05-01T04:55:33.604Z,90.33
2018-05-01T04:56:42.486Z,89.9
2018-05-01T04:57:51.320Z,89.95
2018-05-01T04:59:00.148Z,89.62
2018-05-01T05:00:08.978Z,89.47
2018-05-01T05:01:17.812Z,89.53
2018-05-01T05:02:26.639Z,89.14
2018-05-01T05:03:35.470Z,89.33
2018-05-01T05:04:44.302Z,89.33
2018-05-01T05:05:53.133Z,89.05
2018-05-01T05:07:02.242Z,89.24
2018-05-01T05:08:11.447Z,89.05
2018-05-01T05:09:20.276Z,89.19
2018-05-01T05:10:29.435Z,89.33
2018-05-01T05:11:38.266Z,89.33
2018-05-01T05:12:47.644Z,89.14
2018-05-01T05:13:56.575Z,88.95
2018-05-01T05:15:05.401Z,89
2018-05-01T05:16:14.231Z,88.95
2018-05-01T05:17:23.058Z,89.24
2018-05-01T05:18:31.889Z,88.39
2018-05-01T05:19:40.919Z,88.01
2018-05-01T05:20:49.748Z,87.72
2018-05-01T05:21:58.581Z,87.53
2018-05-01T05:23:07.414Z,87.43
2018-05-01T05:24:16.241Z,87.43
2018-05-01T05:25:25.121Z,86.49
2018-05-01T05:26:33.954Z,85.72
2018-05-01T05:27:43.054Z,85.06
2018-05-01T05:28:52.435Z,84.68
2018-05-01T05:30:01.266Z,85.06
2018-05-01T05:31:10.195Z,84.59
2018-05-01T05:32:19.025Z,84.3
2018-05-01T05:33:27.854Z,84.59
2018-05-01T05:34:36.965Z,84.78
2018-05-01T05:35:45.797Z,84.59
2018-05-01T05:36:54.900Z,84.21
2018-05-01T05:38:03.730Z,83.26
2018-05-01T05:39:12.557Z,82.97
2018-05-01T05:40:21.386Z,82.88
2018-05-01T05:41:30.217Z,82.88
2018-05-01T05:42:39.349Z,82.88
2018-05-01T05:43:48.457Z,82.88
2018-05-01T05:44:57.280Z,82.21
2018-05-01T05:46:06.112Z,81.93
2018-05-01T05:47:14.944Z,81.55
2018-05-01T05:48:24.202Z,81.36
2018-05-01T05:49:33.035Z,80.79
2018-05-01T05:50:41.866Z,80.88
2018-05-01T05:51:50.697Z,80.88
2018-05-01T05:52:59.544Z,80.88
2018-05-01T05:54:08.789Z,80.88
2018-05-01T05:55:17.893Z,81.45
2018-05-01T05:56:26.721Z,81.26
2018-05-01T05:57:35.552Z,80.69
2018-05-01T05:58:44.384Z,80.88
2018-05-01T05:59:53.642Z,81.84
2018-05-01T06:01:02.506Z,80.69
2018-05-01T06:02:11.309Z,80.79
2018-05-01T06:03:20.151Z,80.88
2018-05-01T06:04:29.253Z,80.69
2018-05-01T06:05:38.082Z,81.36
2018-05-01T06:06:47.202Z,80.69
2018-05-01T06:07:56.312Z,80.88
2018-05-01T06:09:05.424Z,80.69
2018-05-01T06:10:14.252Z,80.51
2018-05-01T06:11:23.081Z,80.79
2018-05-01T06:12:31.913Z,80.88
2018-05-01T06:13:41.023Z,80.13
2018-05-01T06:14:50.175Z,79.94
2018-05-01T06:15:59.006Z,79.17
2018-05-01T06:17:08.085Z,78.99
2018-05-01T06:18:16.917Z,79.36
2018-05-01T06:19:26.022Z,78.8
2018-05-01T06:20:34.853Z,78.23
2018-05-01T06:21:43.693Z,78.8
2018-05-01T06:22:53.226Z,78.51
2018-05-01T06:24:02.057Z,78.32
2018-05-01T06:25:11.159Z,78.32
2018-05-01T06:26:19.985Z,78.32
2018-05-01T06:27:28.816Z,78.42
2018-05-01T06:28:37.745Z,77.56
2018-05-01T06:29:46.574Z,77.47
2018-05-01T06:30:55.405Z,76.8
2018-05-01T06:32:04.236Z,76.9
2018-05-01T06:33:13.067Z,76.52
2018-05-01T06:34:22.775Z,75.95
2018-05-01T06:35:31.605Z,76.42
2018-05-01T06:36:40.433Z,76.04
2018-05-01T06:37:49.549Z,75.85
2018-05-01T06:38:58.381Z,75.95
2018-05-01T06:40:07.209Z,75.95
2018-05-01T06:41:16.039Z,76.32
2018-05-01T06:42:24.873Z,75.76
2018-05-01T06:43:33.710Z,75.76
2018-05-01T06:44:42.541Z,76.04
2018-05-01T06:45:51.655Z,75.85
2018-05-01T06:47:00.485Z,76.52
2018-05-01T06:48:09.321Z,76.32
2018-05-01T06:49:18.151Z,76.04
2018-05-01T06:50:27.530Z,76.04
2018-05-01T06:51:36.362Z,75.95
2018-05-01T06:52:45.189Z,76.42
2018-05-01T06:53:54.018Z,76.52
2018-05-01T06:55:03.120Z,76.04
2018-05-01T06:56:11.951Z,75.95
2018-05-01T06:57:21.053Z,76.23
2018-05-01T06:58:30.168Z,76.04
2018-05-01T06:59:38.992Z,75.85
2018-05-01T07:00:47.820Z,75.85
2018-05-01T07:01:56.647Z,75.67
2018-05-01T07:03:05.478Z,75.67
2018-05-01T07:04:14.391Z,75.95
2018-05-01T07:05:23.938Z,75.09
2018-05-01T07:06:32.764Z,74.81
2018-05-01T07:07:41.599Z,74.71
2018-05-01T07:08:50.703Z,74.52
2018-05-01T07:09:59.534Z,73.96
2018-05-01T07:11:08.363Z,73.1
2018-05-01T07:12:17.192Z,72.91
2018-05-01T07:13:26.023Z,72.34
2018-05-01T07:14:34.856Z,72.25
2018-05-01T07:15:43.964Z,72.44
2018-05-01T07:16:53.231Z,71.96
2018-05-01T07:18:02.062Z,72.63
2018-05-01T07:19:10.892Z,72.15
2018-05-01T07:20:19.722Z,72.06
2018-05-01T07:21:28.825Z,72.15
2018-05-01T07:22:38.438Z,72.25
2018-05-01T07:23:47.833Z,71.96
2018-05-01T07:24:56.939Z,72.06
2018-05-01T07:26:05.767Z,72.06
2018-05-01T07:27:14.604Z,71.96
2018-05-01T07:28:23.426Z,71.3
2018-05-01T07:29:32.255Z,71.77
2018-05-01T07:30:41.087Z,71.48
2018-05-01T07:31:49.920Z,71.39
2018-05-01T07:32:58.747Z,71.58
2018-05-01T07:34:07.861Z,71.11
2018-05-01T07:35:17.242Z,70.92
2018-05-01T07:36:26.076Z,70.82
2018-05-01T07:37:35.746Z,70.54
2018-05-01T07:38:44.568Z,70.35
2018-05-01T07:39:53.397Z,70.82
2018-05-01T07:41:02.224Z,69.96
2018-05-01T07:42:11.051Z,69.78
2018-05-01T07:43:19.880Z,69.49
2018-05-01T07:44:28.990Z,69.21
2018-05-01T07:45:37.823Z,68.83
2018-05-01T07:46:46.655Z,68.64
2018-05-01T07:47:55.484Z,67.97
2018-05-01T07:49:04.405Z,68.26
2018-05-01T07:50:13.783Z,68.07
2018-05-01T07:51:22.885Z,67.88
2018-05-01T07:52:31.716Z,67.12
2018-05-01T07:53:40.541Z,66.83
2018-05-01T07:54:49.646Z,66.46
2018-05-01T07:55:58.477Z,66.55
2018-05-01T07:57:07.454Z,66.55
2018-05-01T07:58:16.287Z,66.46
2018-05-01T07:59:25.399Z,66.36
2018-05-01T08:00:34.225Z,66.83
2018-05-01T08:01:43.057Z,66.17
2018-05-01T08:02:52.198Z,66.08
2018-05-01T08:04:01.033Z,66.55
2018-05-01T08:05:09.863Z,66.93
2018-05-01T08:06:18.694Z,66.36
2018-05-01T08:07:27.527Z,66.27
2018-05-01T08:08:36.353Z,66.27
2018-05-01T08:09:45.185Z,65.88
2018-05-01T08:10:54.018Z,66.27
2018-05-01T08:12:02.865Z,66.27
2018-05-01T08:13:11.691Z,65.98
2018-05-01T08:14:21.048Z,66.36
2018-05-01T08:15:30.149Z,66.17
2018-05-01T08:16:38.981Z,66.74
2018-05-01T08:17:48.090Z,66.36
2018-05-01T08:18:57.194Z,66.17
2018-05-01T08:20:06.124Z,66.46
2018-05-01T08:21:15.241Z,66.74
2018-05-01T08:22:24.351Z,67.02
2018-05-01T08:23:33.181Z,67.5
2018-05-01T08:24:42.297Z,66.46
2018-05-01T08:25:52.524Z,66.64
2018-05-01T08:27:01.354Z,66.83
2018-05-01T08:28:10.184Z,66.55
2018-05-01T08:29:19.020Z,66.55
2018-05-01T08:30:27.956Z,67.02
2018-05-01T08:31:37.566Z,66.74
2018-05-01T08:32:46.394Z,66.64
2018-05-01T08:33:55.227Z,67.31
2018-05-01T08:35:04.106Z,67.5
2018-05-01T08:36:13.009Z,66.83
2018-05-01T08:37:22.065Z,66.83
2018-05-01T08:38:31.661Z,66.36
2018-05-01T08:39:40.576Z,67.02
2018-05-01T08:40:49.740Z,66.74
2018-05-01T08:41:58.735Z,66.77
2018-05-01T08:43:07.863Z,67.31
2018-05-01T08:44:16.841Z,67.69
2018-05-01T08:45:26.174Z,67.4
2018-05-01T08:46:35.123Z,67.31
2018-05-01T08:47:44.097Z,67.79
2018-05-01T08:48:53.076Z,67.69
2018-05-01T08:50:01.912Z,66.83
2018-05-01T08:51:10.737Z,68.44
2018-05-01T08:52:19.844Z,69.3
2018-05-01T08:53:28.673Z,68.96
2018-05-01T08:54:38.088Z,69.05
2018-05-01T08:55:47.189Z,70
2018-05-01T08:56:56.304Z,69.05
2018-05-01T08:58:05.129Z,69.24
2018-05-01T08:59:13.961Z,70.19
2018-05-01T09:00:22.893Z,69.34
2018-05-01T09:01:31.724Z,69.15
2018-05-01T09:02:40.825Z,69.71
2018-05-01T09:03:50.483Z,70.1
2018-05-01T09:04:59.316Z,70.38
2018-05-01T09:06:08.583Z,70.29
2018-05-01T09:07:17.688Z,70.1
2018-05-01T09:08:26.519Z,70.48
2018-05-01T09:09:35.635Z,70.86
2018-05-01T09:10:44.456Z,71.14
2018-05-01T09:11:53.436Z,71.43
2018-05-01T09:13:02.544Z,71.81
2018-05-01T09:14:11.376Z,71.9
2018-05-01T09:15:20.211Z,72.38
2018-05-01T09:16:29.331Z,72.47
2018-05-01T09:17:38.342Z,74.75
2018-05-01T09:18:47.456Z,76.27
2018-05-01T09:19:56.283Z,75.13
2018-05-01T09:21:05.113Z,74.56
2018-05-01T09:22:13.948Z,73.99
2018-05-01T09:23:22.779Z,74.56
2018-05-01T09:24:31.612Z,74.75
2018-05-01T09:25:40.765Z,75.79
2018-05-01T09:26:50.158Z,75.04
2018-05-01T09:27:58.989Z,76.08
2018-05-01T09:29:08.095Z,75.51
2018-05-01T09:30:16.927Z,75.6
2018-05-01T09:31:25.757Z,75.79
2018-05-01T09:32:34.587Z,76.56
2018-05-01T09:33:43.423Z,76.56
2018-05-01T09:34:52.678Z,76.56
2018-05-01T09:36:01.508Z,78.83
2018-05-01T09:37:10.348Z,78.55
2018-05-01T09:38:19.176Z,79.03
2018-05-01T09:39:28.008Z,78.93
2018-05-01T09:40:37.184Z,79.03
2018-05-01T09:41:45.970Z,79.69
2018-05-01T09:42:54.798Z,79.41
2018-05-01T09:44:03.631Z,79.41
2018-05-01T09:45:12.738Z,79.31
2018-05-01T09:46:21.993Z,78.64
2018-05-01T09:47:31.223Z,79.5
2018-05-01T09:48:40.294Z,79.41
2018-05-01T09:49:49.124Z,80.26
2018-05-01T09:50:57.958Z,79.5
2018-05-01T09:52:06.791Z,80.93
2018-05-01T09:53:15.631Z,80.83
2018-05-01T09:54:25.526Z,80.74
2018-05-01T09:55:34.609Z,80.55
2018-05-01T09:56:43.440Z,80.64
2018-05-01T09:57:52.320Z,81.16
2018-05-01T09:59:01.156Z,81.3
2018-05-01T10:00:09.994Z,81.12
2018-05-01T10:01:18.825Z,80.07
2018-05-01T10:02:27.656Z,81.68
2018-05-01T10:03:36.689Z,81.35
2018-05-01T10:04:45.798Z,81.73
2018-05-01T10:05:54.628Z,82.29
2018-05-01T10:07:03.466Z,82.77
2018-05-01T10:08:12.299Z,82.87
2018-05-01T10:09:21.534Z,83.44
2018-05-01T10:10:30.367Z,83.72
2018-05-01T10:11:39.202Z,84.01
2018-05-01T10:12:48.323Z,84.01
2018-05-01T10:13:57.156Z,84.77
2018-05-01T10:15:06.084Z,84.77
2018-05-01T10:16:14.915Z,84.39
2018-05-01T10:17:23.771Z,85.05
2018-05-01T10:18:32.856Z,84.67
2018-05-01T10:19:41.688Z,85.53
2018-05-01T10:20:50.670Z,85.53
2018-05-01T10:21:59.507Z,84.95
2018-05-01T10:23:08.341Z,85.62
2018-05-01T10:24:17.178Z,85.24
2018-05-01T10:25:26.007Z,86.1
2018-05-01T10:26:35.143Z,86.19
2018-05-01T10:27:44.248Z,86.86
2018-05-01T10:28:53.080Z,85.72
2018-05-01T10:30:02.196Z,86.47
2018-05-01T10:31:11.307Z,87.05
2018-05-01T10:32:20.283Z,87.62
2018-05-01T10:33:29.117Z,87.14
2018-05-01T10:34:37.949Z,87.81
2018-05-01T10:35:46.783Z,87.71
2018-05-01T10:36:55.625Z,87.05
2018-05-01T10:38:04.598Z,87.62
2018-05-01T10:39:13.431Z,87.43
2018-05-01T10:40:22.265Z,87.71
2018-05-01T10:41:31.099Z,87.71
2018-05-01T10:42:39.936Z,87.81
2018-05-01T10:43:48.767Z,88.19
2018-05-01T10:44:57.598Z,88.38
2018-05-01T10:46:06.433Z,88.28
2018-05-01T10:47:15.268Z,89.28
2018-05-01T10:48:24.103Z,89.66
2018-05-01T10:49:32.935Z,89.66
2018-05-01T10:50:41.767Z,89.94
2018-05-01T10:51:50.600Z,89.56
2018-05-01T10:52:59.433Z,90.04
2018-05-01T10:54:08.267Z,90.33
2018-05-01T10:55:17.154Z,90.33
2018-05-01T10:56:26.277Z,90.23
2018-05-01T10:57:35.136Z,90.42
2018-05-01T10:58:44.247Z,89.85
2018-05-01T10:59:53.372Z,90.42
2018-05-01T11:01:02.316Z,89.75
2018-05-01T11:02:11.165Z,90.04
2018-05-01T11:03:20.009Z,90.33
2018-05-01T11:04:28.848Z,90.7
2018-05-01T11:05:37.710Z,90.23
2018-05-01T11:06:46.652Z,90.61
2018-05-01T11:07:55.597Z,90.8
2018-05-01T11:09:04.716Z,91.37
2018-05-01T11:10:13.562Z,90.42
2018-05-01T11:11:22.411Z,90.8
2018-05-01T11:12:31.554Z,91.08
2018-05-01T11:13:40.400Z,90.42
2018-05-01T11:14:49.244Z,90.7
2018-05-01T11:15:58.084Z,90.89
2018-05-01T11:17:07.203Z,90.23
2018-05-01T11:18:16.472Z,89.75
2018-05-01T11:19:25.623Z,90.04
2018-05-01T11:20:34.424Z,90.04
2018-05-01T11:21:43.533Z,89.94
2018-05-01T11:22:52.370Z,89.47
2018-05-01T11:24:01.460Z,89.85
2018-05-01T11:25:10.560Z,89.75
2018-05-01T11:26:19.466Z,89.75
2018-05-01T11:27:28.587Z,90.04
2018-05-01T11:28:37.440Z,89.94
2018-05-01T11:29:46.679Z,90.14
2018-05-01T11:30:55.511Z,89.75
2018-05-01T11:32:04.344Z,90.7
2018-05-01T11:33:13.179Z,90.04
2018-05-01T11:34:22.016Z,90.04
2018-05-01T11:35:31.226Z,89.94
2018-05-01T11:36:40.336Z,90.42
2018-05-01T11:37:49.438Z,89.94
2018-05-01T11:38:58.268Z,90.61
2018-05-01T11:40:07.100Z,89.56
2018-05-01T11:41:16.085Z,89.85
2018-05-01T11:42:25.191Z,89.85
2018-05-01T11:43:34.024Z,90.14
2018-05-01T11:44:42.857Z,89.75
2018-05-01T11:45:51.689Z,90.52
2018-05-01T11:47:00.621Z,89.56
2018-05-01T11:48:09.455Z,89.37
2018-05-01T11:49:18.288Z,89.28
2018-05-01T11:50:27.123Z,89.09
2018-05-01T11:51:35.959Z,89.28
2018-05-01T11:52:44.839Z,88.71
2018-05-01T11:53:53.672Z,89.47
2018-05-01T11:55:02.782Z,89.09
2018-05-01T11:56:11.895Z,89.37
2018-05-01T11:57:20.734Z,89
2018-05-01T11:58:29.868Z,88.71
2018-05-01T11:59:38.717Z,89.09
2018-05-01T12:00:47.546Z,89.75
2018-05-01T12:01:56.381Z,89.28
2018-05-01T12:03:05.488Z,89.18
2018-05-01T12:04:14.477Z,89.75
2018-05-01T12:05:23.647Z,89.09
2018-05-01T12:06:32.410Z,89.47
2018-05-01T12:07:41.243Z,89.18
2018-05-01T12:08:50.074Z,89.56
2018-05-01T12:09:58.907Z,89.09
2018-05-01T12:11:07.740Z,89.56
2018-05-01T12:12:16.573Z,89.47
2018-05-01T12:13:25.404Z,89.18
2018-05-01T12:14:34.235Z,89.28
2018-05-01T12:15:43.170Z,89.56
2018-05-01T12:16:52.282Z,89.37
2018-05-01T12:18:01.121Z,89.28
2018-05-01T12:19:09.954Z,88.61
2018-05-01T12:20:19.060Z,89.37
2018-05-01T12:21:28.041Z,89.37
2018-05-01T12:22:36.873Z,88.8
2018-05-01T12:23:45.753Z,88.71
2018-05-01T12:24:54.863Z,88.52
2018-05-01T12:26:03.695Z,88.42
2018-05-01T12:27:12.781Z,88.8
2018-05-01T12:28:21.891Z,88.23
2018-05-01T12:29:30.720Z,88.13
2018-05-01T12:30:39.828Z,87.76
2018-05-01T12:31:48.663Z,86.71
2018-05-01T12:32:57.493Z,85.28
2018-05-01T12:34:06.326Z,85.86
2018-05-01T12:35:15.157Z,85.1
2018-05-01T12:36:24.410Z,85.19
2018-05-01T12:37:33.841Z,83.58
2018-05-01T12:38:42.770Z,83.29
2018-05-01T12:39:51.602Z,83.29
2018-05-01T12:41:00.438Z,83.1
2018-05-01T12:42:09.269Z,81.96
2018-05-01T12:43:18.100Z,82.71
2018-05-01T12:44:27.205Z,82.29
2018-05-01T12:45:36.041Z,82.2
2018-05-01T12:46:44.870Z,82.05
2018-05-01T12:47:53.712Z,81.77
2018-05-01T12:49:02.545Z,81.67
2018-05-01T12:50:11.802Z,82.15
2018-05-01T12:51:20.637Z,81.35
2018-05-01T12:52:29.467Z,81.44
2018-05-01T12:53:38.298Z,81.54
2018-05-01T12:54:47.139Z,80.96
2018-05-01T12:55:56.263Z,80.68
2018-05-01T12:57:05.094Z,80.87
2018-05-01T12:58:14.199Z,81.63
2018-05-01T12:59:23.034Z,80.4
2018-05-01T13:00:31.865Z,81.35
2018-05-01T13:01:40.848Z,81.63
2018-05-01T13:02:49.681Z,81.35
2018-05-01T13:03:58.512Z,81.73
2018-05-01T13:05:07.389Z,80.87
2018-05-01T13:06:16.176Z,80.11
2018-05-01T13:07:25.160Z,80.72
2018-05-01T13:08:33.994Z,81.48
2018-05-01T13:09:42.826Z,81.63
2018-05-01T13:10:51.657Z,80.87
2018-05-01T13:12:00.491Z,81.86
2018-05-01T13:13:09.624Z,82.53
2018-05-01T13:14:18.458Z,82.91
2018-05-01T13:15:27.343Z,84.72
2018-05-01T13:16:36.178Z,83.58
2018-05-01T13:17:45.287Z,83.76
2018-05-01T13:18:54.220Z,84.14
2018-05-01T13:20:03.063Z,85.57
2018-05-01T13:21:11.900Z,85.1
2018-05-01T13:22:20.736Z,85.47
2018-05-01T13:23:29.568Z,85.38
2018-05-01T13:24:38.504Z,85.57
2018-05-01T13:25:47.340Z,86.33
2018-05-01T13:26:56.174Z,87.09
2018-05-01T13:28:05.010Z,86.24
2018-05-01T13:29:13.840Z,86.33
2018-05-01T13:30:23.273Z,87.85
2018-05-01T13:31:32.387Z,84.14
2018-05-01T13:32:41.220Z,87.09
2018-05-01T13:33:50.056Z,88.33
2018-05-01T13:34:59.168Z,88.42
2018-05-01T13:36:08.015Z,87.85
2018-05-01T13:37:16.885Z,90.14
2018-05-01T13:38:25.718Z,91.08
2018-05-01T13:39:35.106Z,90.14
2018-05-01T13:40:44.221Z,91.08
2018-05-01T13:41:53.924Z,89.94
2018-05-01T13:43:03.040Z,91.08
2018-05-01T13:44:11.873Z,91.66
2018-05-01T13:45:21.130Z,91.66
2018-05-01T13:46:30.416Z,92.7
2018-05-01T13:47:39.255Z,92.8
2018-05-01T13:48:48.088Z,92.61
2018-05-01T13:49:57.576Z,92.41
2018-05-01T13:51:06.412Z,92.8
2018-05-01T13:52:15.246Z,92.7
2018-05-01T13:53:24.081Z,91.08
2018-05-01T13:54:33.188Z,92.41
2018-05-01T13:55:42.022Z,92.7
2018-05-01T13:56:51.131Z,93.46
2018-05-01T13:57:59.963Z,92.89
2018-05-01T13:59:09.417Z,93.37
2018-05-01T14:00:18.252Z,92.51
2018-05-01T14:01:27.080Z,94.13
2018-05-01T14:02:35.915Z,94.27
2018-05-01T14:03:44.750Z,93.13
2018-05-01T14:04:53.684Z,94.27
2018-05-01T14:06:02.615Z,92.84
2018-05-01T14:07:11.465Z,93.04
2018-05-01T14:08:20.346Z,93.51
2018-05-01T14:09:29.730Z,92.08
2018-05-01T14:10:38.850Z,92.75
2018-05-01T14:11:48.241Z,91.99
2018-05-01T14:12:57.080Z,92.56
2018-05-01T14:14:05.908Z,91.61
2018-05-01T14:15:14.743Z,92.65
2018-05-01T14:16:23.852Z,92.94
2018-05-01T14:17:32.686Z,94.6
2018-05-01T14:18:41.524Z,92.94
2018-05-01T14:19:50.358Z,93.27
2018-05-01T14:20:59.488Z,93.46
2018-05-01T14:22:08.322Z,94.42
2018-05-01T14:23:17.439Z,92.41
2018-05-01T14:24:26.559Z,93.08
2018-05-01T14:25:35.973Z,93.55
2018-05-01T14:26:45.018Z,95.36
2018-05-01T14:27:53.861Z,95.51
2018-05-01T14:29:03.333Z,95.6
2018-05-01T14:30:12.099Z,95.41
2018-05-01T14:31:20.979Z,96.84
2018-05-01T14:32:29.821Z,95.41
2018-05-01T14:33:38.763Z,96.65
2018-05-01T14:34:47.645Z,95.27
2018-05-01T14:35:56.790Z,95.56
2018-05-01T14:37:05.630Z,95.27
2018-05-01T14:38:14.464Z,95.94
2018-05-01T14:39:23.728Z,96.6
2018-05-01T14:40:32.849Z,95.08
2018-05-01T14:41:41.791Z,95.75
2018-05-01T14:42:50.625Z,93.74
2018-05-01T14:43:59.458Z,95.36
2018-05-01T14:45:08.394Z,94.79
2018-05-01T14:46:17.239Z,94.74
2018-05-01T14:47:26.078Z,95.41
2018-05-01T14:48:34.913Z,94.93
2018-05-01T14:49:43.749Z,95.61